SLVM

Teniente Coronel Rafael Pabón Airport

Airport
ICAO code
SLVM
Summary
ICAO Region
CARSAM
ICAO Territory
Location

Vilamontes, Tarija

Serving
Villamontes
Elevation
1305 ft
Coordinates
21° 15' 19" S , 63° 24' 20" W
KCC
Cwa
Metar
Observation
SLVM 101300Z 00000KT 9999 NSC 12/05 Q1029
Station
Villamontes
Date/Time
2022-08-10 13:00:00
Wind direction
Wind speed
00 kts
Lowest cloud amount
nil significant cloud
Temperature
12°C
Dew point
5°C
Humidity
62%
QNH
1029 hPa
Weather condition
n/a

Airport serving the city of Villamontes in the Gran Chaco Province of the Tarija Department of Bolivia.

Climatology

Humid sub tropical climate (Köppen climate classification Cwa).

Runways

Designator Length Width Surface Rops
18/36 1499 35 ASP No/No

Airport map

Aerial View

SKYbrary Partners:

Safety knowledge contributed by: